createdAt,value
2018-07-28T00:00:54.240Z,35.60
2018-07-28T00:03:23.457Z,35.70
2018-07-28T00:05:52.644Z,35.90
2018-07-28T00:08:21.707Z,35.80
2018-07-28T00:10:50.807Z,35.70
2018-07-28T00:13:21.054Z,35.60
2018-07-28T00:15:50.257Z,35.70
2018-07-28T00:18:19.315Z,35.80
2018-07-28T00:20:48.379Z,35.60
2018-07-28T00:23:17.424Z,35.60
2018-07-28T00:25:51.668Z,36.30
2018-07-28T00:28:20.717Z,35.60
2018-07-28T00:30:49.759Z,35.50
2018-07-28T00:33:18.885Z,35.40
2018-07-28T00:35:48.041Z,35.40
2018-07-28T00:38:17.198Z,35.50
2018-07-28T00:40:46.345Z,35.60
2018-07-28T00:43:16.144Z,35.80
2018-07-28T00:45:45.263Z,36.00
2018-07-28T00:48:14.484Z,36.00
2018-07-28T00:50:44.480Z,36.20
2018-07-28T00:53:13.588Z,36.40
2018-07-28T00:55:42.729Z,36.60
2018-07-28T00:58:11.859Z,36.60
2018-07-28T01:00:41.057Z,36.70
2018-07-28T01:03:10.986Z,36.80
2018-07-28T01:05:41.099Z,37.10
2018-07-28T01:08:10.317Z,37.20
2018-07-28T01:10:40.619Z,37.20
2018-07-28T01:13:10.861Z,37.20
2018-07-28T01:15:39.986Z,37.20
2018-07-28T01:18:09.144Z,37.60
2018-07-28T01:20:38.645Z,37.50
2018-07-28T01:25:36.894Z,38.10
2018-07-28T01:28:06.093Z,38.30
2018-07-28T01:30:35.203Z,38.70
2018-07-28T01:33:04.336Z,38.90
2018-07-28T01:35:33.442Z,39.30
2018-07-28T01:38:02.555Z,39.30
2018-07-28T01:40:31.652Z,39.60
2018-07-28T01:43:00.852Z,39.80
2018-07-28T01:45:31.815Z,40.60
2018-07-28T01:48:00.897Z,40.00
2018-07-28T01:50:30.044Z,40.20
2018-07-28T01:53:00.056Z,40.50
2018-07-28T01:57:58.328Z,40.80
2018-07-28T02:00:27.408Z,40.70
2018-07-28T02:02:56.567Z,41.00
2018-07-28T02:05:25.683Z,41.90
2018-07-28T02:10:23.551Z,42.60
2018-07-28T02:12:52.644Z,42.80
2018-07-28T02:15:21.707Z,42.90
2018-07-28T02:17:51.071Z,43.50
2018-07-28T02:20:21.864Z,44.00
2018-07-28T02:22:51.319Z,44.60
2018-07-28T02:25:20.553Z,45.10
2018-07-28T02:27:49.789Z,45.40
2018-07-28T02:30:19.042Z,45.70
2018-07-28T02:32:48.115Z,46.20
2018-07-28T02:35:17.280Z,46.10
2018-07-28T02:37:46.360Z,46.50
2018-07-28T02:40:15.454Z,46.70
2018-07-28T02:42:44.727Z,46.90
2018-07-28T02:45:13.900Z,47.40
2018-07-28T02:47:43.086Z,47.40
2018-07-28T02:50:12.348Z,47.40
2018-07-28T02:52:41.811Z,47.70
2018-07-28T02:55:11.261Z,47.90
2018-07-28T02:57:40.545Z,48.20
2018-07-28T03:00:10.551Z,48.30
2018-07-28T03:02:39.827Z,48.30
2018-07-28T03:05:09.365Z,48.60
2018-07-28T03:07:39.233Z,48.50
2018-07-28T03:10:09.114Z,48.80
2018-07-28T03:12:39.565Z,48.80
2018-07-28T03:15:30.765Z,49.10
2018-07-28T03:18:01.707Z,49.20
2018-07-28T03:20:31.593Z,49.30
2018-07-28T03:23:01.587Z,49.50
2018-07-28T03:25:30.907Z,49.70
2018-07-28T03:28:00.108Z,49.70
2018-07-28T03:30:29.966Z,50.00
2018-07-28T03:32:59.191Z,50.10
2018-07-28T03:37:57.766Z,50.40
2018-07-28T03:40:27.131Z,50.40
2018-07-28T03:42:56.581Z,50.80
2018-07-28T03:45:25.982Z,50.80
2018-07-28T03:47:56.716Z,50.90
2018-07-28T03:50:28.011Z,51.10
2018-07-28T03:52:57.462Z,51.20
2018-07-28T03:55:26.623Z,51.50
2018-07-28T03:57:55.944Z,51.40
2018-07-28T04:00:25.339Z,51.70
2018-07-28T04:02:54.624Z,52.00
2018-07-28T04:05:24.044Z,52.20
2018-07-28T04:07:53.387Z,52.30
2018-07-28T04:10:22.740Z,52.30
2018-07-28T04:12:54.468Z,52.50
2018-07-28T04:15:25.164Z,52.40
2018-07-28T04:17:55.546Z,52.70
2018-07-28T04:20:27.164Z,52.80
2018-07-28T04:22:56.547Z,53.10
2018-07-28T04:25:26.691Z,53.00
2018-07-28T04:27:55.980Z,52.90
2018-07-28T04:30:26.726Z,52.60
2018-07-28T04:32:56.337Z,52.60
2018-07-28T04:35:26.380Z,52.60
2018-07-28T04:37:55.701Z,52.50
2018-07-28T04:40:25.823Z,52.40
2018-07-28T04:42:55.390Z,52.50
2018-07-28T04:45:25.191Z,52.30
2018-07-28T04:47:57.064Z,51.80
2018-07-28T04:50:26.327Z,51.60
2018-07-28T04:52:55.937Z,51.30
2018-07-28T04:55:26.018Z,50.90
2018-07-28T04:57:55.839Z,50.90
2018-07-28T05:00:24.980Z,50.80
2018-07-28T05:02:55.094Z,50.70
2018-07-28T05:05:25.050Z,50.70
2018-07-28T05:07:55.113Z,50.80
2018-07-28T05:10:24.742Z,51.00
2018-07-28T05:12:54.238Z,51.10
2018-07-28T05:15:23.620Z,51.30
2018-07-28T05:17:53.089Z,51.20
2018-07-28T05:20:22.890Z,51.20
2018-07-28T05:22:52.384Z,51.30
2018-07-28T05:25:21.904Z,51.50
2018-07-28T05:27:51.438Z,51.40
2018-07-28T05:30:20.684Z,51.60
2018-07-28T05:32:54.045Z,51.60
2018-07-28T05:35:23.236Z,51.70
2018-07-28T05:37:52.734Z,51.70
2018-07-28T05:40:21.961Z,51.60
2018-07-28T05:42:51.128Z,51.50
2018-07-28T05:45:20.349Z,51.60
2018-07-28T05:47:50.155Z,51.90
2018-07-28T05:52:48.738Z,51.80
2018-07-28T05:55:19.879Z,51.90
2018-07-28T05:57:49.271Z,51.90
2018-07-28T06:00:18.713Z,51.90
2018-07-28T06:02:48.000Z,51.80
2018-07-28T06:05:17.233Z,51.90
2018-07-28T06:07:47.113Z,51.80
2018-07-28T06:10:16.691Z,51.90
2018-07-28T06:12:46.344Z,52.00
2018-07-28T06:15:16.016Z,52.10
2018-07-28T06:17:45.536Z,52.30
2018-07-28T06:20:15.275Z,52.40
2018-07-28T06:22:47.973Z,52.50
2018-07-28T06:25:21.617Z,52.70
2018-07-28T06:27:53.092Z,52.90
2018-07-28T06:30:23.213Z,53.20
2018-07-28T06:32:53.596Z,53.20
2018-07-28T06:35:25.286Z,53.50
2018-07-28T06:37:55.603Z,53.90
2018-07-28T06:40:25.033Z,53.80
2018-07-28T06:42:54.724Z,53.80
2018-07-28T06:45:24.372Z,53.80
2018-07-28T06:47:54.675Z,53.70
2018-07-28T06:50:24.609Z,53.70
2018-07-28T06:52:54.899Z,53.70
2018-07-28T06:55:25.374Z,53.70
2018-07-28T06:57:55.543Z,53.40
2018-07-28T07:00:25.789Z,53.50
2018-07-28T07:02:56.678Z,53.50
2018-07-28T07:05:27.080Z,53.50
2018-07-28T07:07:56.808Z,53.60
2018-07-28T07:10:26.554Z,53.40
2018-07-28T07:12:56.659Z,53.20
2018-07-28T07:15:26.465Z,52.40
2018-07-28T07:17:56.624Z,51.50
2018-07-28T07:20:26.693Z,50.90
2018-07-28T07:23:00.555Z,49.90
2018-07-28T07:25:30.574Z,49.20
2018-07-28T07:27:59.858Z,48.90
2018-07-28T07:30:29.549Z,48.60
2018-07-28T07:33:02.244Z,48.50
2018-07-28T07:35:32.993Z,48.60
2018-07-28T07:38:04.310Z,48.60
2018-07-28T07:40:34.622Z,48.90
2018-07-28T07:43:04.461Z,49.10
2018-07-28T07:45:34.811Z,49.00
2018-07-28T07:48:04.409Z,49.30
2018-07-28T07:50:38.528Z,49.40
2018-07-28T07:53:08.269Z,49.60
2018-07-28T07:55:37.672Z,49.90
2018-07-28T07:58:07.088Z,49.60
2018-07-28T08:00:36.924Z,50.00
2018-07-28T08:03:06.744Z,50.10
2018-07-28T08:05:36.484Z,50.00
2018-07-28T08:08:06.173Z,50.00
2018-07-28T08:10:35.883Z,50.20
2018-07-28T08:13:06.534Z,50.00
2018-07-28T08:15:36.498Z,50.10
2018-07-28T08:18:05.941Z,50.40
2018-07-28T08:20:35.380Z,51.20
2018-07-28T08:23:04.968Z,50.90
2018-07-28T08:25:35.409Z,50.60
2018-07-28T08:28:13.274Z,50.60
2018-07-28T08:30:46.466Z,50.30
2018-07-28T08:33:16.646Z,50.30
2018-07-28T08:35:46.412Z,50.00
2018-07-28T08:38:16.194Z,49.20
2018-07-28T08:40:47.008Z,48.30
2018-07-28T08:43:17.346Z,47.80
2018-07-28T08:45:50.280Z,47.90
2018-07-28T08:48:23.575Z,46.70
2018-07-28T08:50:59.995Z,46.50
2018-07-28T08:53:32.507Z,46.50
2018-07-28T08:56:04.575Z,46.90
2018-07-28T08:58:35.936Z,49.30
2018-07-28T09:01:05.784Z,50.20
2018-07-28T09:03:35.738Z,50.10
2018-07-28T09:06:05.525Z,49.60
2018-07-28T09:08:35.203Z,50.30
2018-07-28T09:11:06.782Z,50.40
2018-07-28T09:13:36.946Z,50.20
2018-07-28T09:16:06.884Z,50.10
2018-07-28T09:18:36.859Z,50.20
2018-07-28T09:21:06.787Z,49.50
2018-07-28T09:23:36.790Z,50.90
2018-07-28T09:26:06.982Z,51.60
2018-07-28T09:28:37.666Z,52.80
2018-07-28T09:31:07.192Z,53.70
2018-07-28T09:33:36.847Z,53.80
2018-07-28T09:36:06.632Z,52.70
2018-07-28T09:38:36.061Z,51.70
2018-07-28T09:41:05.995Z,51.60
2018-07-28T09:43:38.109Z,51.40
2018-07-28T09:46:08.161Z,51.20
2018-07-28T09:48:37.811Z,51.10
2018-07-28T09:51:07.709Z,51.70
2018-07-28T09:53:38.373Z,51.00
2018-07-28T09:56:08.334Z,51.50
2018-07-28T09:58:38.613Z,51.00
2018-07-28T10:01:14.013Z,51.00
2018-07-28T10:03:47.610Z,49.90
2018-07-28T10:06:21.293Z,50.20
2018-07-28T10:08:55.283Z,49.60
2018-07-28T10:11:26.278Z,49.20
2018-07-28T10:13:59.993Z,49.50
2018-07-28T10:16:32.094Z,49.10
2018-07-28T10:19:06.051Z,47.40
2018-07-28T10:21:41.916Z,46.80
2018-07-28T10:24:13.601Z,46.30
2018-07-28T10:26:45.449Z,45.50
2018-07-28T10:29:20.560Z,44.20
2018-07-28T10:34:21.930Z,42.50
2018-07-28T10:36:52.264Z,41.60
2018-07-28T10:39:22.145Z,41.60
2018-07-28T10:41:52.707Z,41.90
2018-07-28T10:44:26.469Z,41.90
2018-07-28T10:47:06.110Z,41.90
2018-07-28T10:49:47.958Z,42.10
2018-07-28T10:52:18.659Z,42.50
2018-07-28T10:54:58.871Z,43.30
2018-07-28T10:57:43.424Z,43.60
2018-07-28T11:03:48.118Z,43.30
2018-07-28T11:06:24.307Z,43.10
2018-07-28T11:09:06.435Z,43.10
2018-07-28T11:11:44.715Z,43.00
2018-07-28T11:14:18.903Z,43.40
2018-07-28T11:16:51.845Z,43.10
2018-07-28T11:19:25.154Z,42.70
2018-07-28T11:22:00.099Z,42.40
2018-07-28T11:24:31.314Z,42.00
2018-07-28T11:27:04.513Z,41.40
2018-07-28T11:29:39.501Z,42.10
2018-07-28T11:32:29.472Z,42.50
2018-07-28T11:38:09.033Z,41.40
2018-07-28T11:40:58.477Z,41.50
2018-07-28T11:43:46.195Z,41.30
2018-07-28T11:46:17.629Z,40.90
2018-07-28T11:48:51.465Z,40.90
2018-07-28T11:51:23.434Z,41.00
2018-07-28T11:54:03.718Z,40.20
2018-07-28T11:56:36.060Z,40.80
2018-07-28T11:59:07.436Z,40.60
2018-07-28T12:04:09.600Z,39.90
2018-07-28T12:06:42.031Z,39.60
2018-07-28T12:09:15.914Z,40.00
2018-07-28T12:11:46.685Z,40.10
2018-07-28T12:14:20.338Z,39.70
2018-07-28T12:16:55.227Z,39.30
2018-07-28T12:19:27.317Z,38.90
2018-07-28T12:21:57.588Z,38.90
2018-07-28T12:24:27.859Z,38.80
2018-07-28T12:27:00.443Z,38.80
2018-07-28T12:29:31.380Z,38.70
2018-07-28T12:32:03.455Z,38.10
2018-07-28T12:34:34.626Z,38.30
2018-07-28T12:37:05.317Z,38.10
2018-07-28T12:39:35.193Z,37.70
2018-07-28T12:42:07.453Z,37.60
2018-07-28T12:44:38.067Z,36.90
2018-07-28T12:47:09.423Z,36.90
2018-07-28T12:49:39.470Z,37.10
2018-07-28T12:52:10.805Z,37.20
2018-07-28T12:54:40.888Z,37.30
2018-07-28T12:59:40.175Z,37.00
2018-07-28T13:02:11.135Z,36.70
2018-07-28T13:04:41.194Z,36.80
2018-07-28T13:07:11.025Z,36.90
2018-07-28T13:09:40.541Z,37.20
2018-07-28T13:12:10.458Z,38.60
2018-07-28T13:14:40.279Z,39.70
2018-07-28T13:17:11.352Z,39.10
2018-07-28T13:19:42.793Z,39.50
2018-07-28T13:22:13.177Z,39.70
2018-07-28T13:24:44.658Z,39.20
2018-07-28T13:27:15.069Z,39.50
2018-07-28T13:29:50.983Z,39.10
2018-07-28T13:32:21.419Z,39.10
2018-07-28T13:34:52.502Z,38.90
2018-07-28T13:37:22.409Z,38.80
2018-07-28T13:39:54.243Z,38.20
2018-07-28T13:42:24.303Z,38.10
2018-07-28T13:44:56.697Z,37.90
2018-07-28T13:47:27.120Z,38.30
2018-07-28T13:49:57.138Z,38.40
2018-07-28T13:52:28.044Z,38.40
2018-07-28T13:54:58.460Z,38.70
2018-07-28T13:57:28.989Z,38.00
2018-07-28T14:00:00.133Z,38.10
2018-07-28T14:02:29.949Z,37.50
2018-07-28T14:05:00.142Z,37.90
2018-07-28T14:07:34.092Z,38.50
2018-07-28T14:10:05.759Z,38.80
2018-07-28T14:12:45.323Z,38.90
2018-07-28T14:15:15.107Z,39.00
2018-07-28T14:17:49.029Z,40.60
2018-07-28T14:20:19.932Z,42.30
2018-07-28T14:22:53.091Z,43.00
2018-07-28T14:25:22.832Z,43.60
2018-07-28T14:27:52.561Z,44.00
2018-07-28T14:30:23.051Z,44.00
2018-07-28T14:32:57.865Z,44.10
2018-07-28T14:35:29.480Z,44.30
2018-07-28T14:38:00.276Z,44.30
2018-07-28T14:40:31.176Z,43.70
2018-07-28T14:43:01.200Z,45.20
2018-07-28T14:45:31.823Z,45.60
2018-07-28T14:48:09.652Z,45.00
2018-07-28T14:50:39.454Z,44.70
2018-07-28T14:53:13.798Z,44.50
2018-07-28T14:55:45.437Z,43.90
2018-07-28T14:58:20.267Z,43.60
2018-07-28T15:00:51.808Z,42.90
2018-07-28T15:03:23.748Z,42.80
2018-07-28T15:05:54.208Z,42.50
2018-07-28T15:08:24.233Z,42.10
2018-07-28T15:10:57.215Z,41.80
2018-07-28T15:13:29.603Z,41.60
2018-07-28T15:18:29.833Z,40.90
2018-07-28T15:21:00.791Z,40.30
2018-07-28T15:23:30.954Z,40.20
2018-07-28T15:26:02.562Z,40.50
2018-07-28T15:28:33.397Z,40.30
2018-07-28T15:31:03.347Z,40.30
2018-07-28T15:36:05.507Z,39.70
2018-07-28T15:38:35.742Z,39.80
2018-07-28T15:41:06.800Z,40.40
2018-07-28T15:43:38.822Z,39.60
2018-07-28T15:46:10.625Z,39.80
2018-07-28T15:48:47.577Z,39.60
2018-07-28T15:51:17.225Z,40.00
2018-07-28T15:53:47.349Z,39.90
2018-07-28T15:56:17.221Z,40.20
2018-07-28T15:58:46.775Z,40.00
2018-07-28T16:01:16.482Z,39.90
2018-07-28T16:03:47.167Z,40.00
2018-07-28T16:06:18.234Z,40.00
2018-07-28T16:08:48.166Z,40.20
2018-07-28T16:11:18.003Z,40.30
2018-07-28T16:13:47.596Z,40.60
2018-07-28T16:16:17.356Z,40.40
2018-07-28T16:21:16.640Z,40.40
2018-07-28T16:23:46.203Z,40.50
2018-07-28T16:26:18.375Z,40.50
2018-07-28T16:28:48.801Z,40.70
2018-07-28T16:31:18.721Z,40.80
2018-07-28T16:33:48.288Z,40.90
2018-07-28T16:36:17.968Z,41.00
2018-07-28T16:38:54.176Z,41.30
2018-07-28T16:41:24.238Z,41.40
2018-07-28T16:43:53.907Z,41.40
2018-07-28T16:46:23.883Z,41.70
2018-07-28T16:48:54.563Z,41.60
2018-07-28T16:51:45.113Z,41.50
2018-07-28T16:54:14.827Z,41.40
2018-07-28T16:56:45.396Z,41.60
2018-07-28T16:59:15.210Z,41.60
2018-07-28T17:01:45.394Z,41.20
2018-07-28T17:04:15.388Z,41.40
2018-07-28T17:06:45.727Z,41.20
2018-07-28T17:09:15.529Z,41.30
2018-07-28T17:11:48.936Z,41.20
2018-07-28T17:14:18.803Z,41.00
2018-07-28T17:16:49.940Z,40.70
2018-07-28T17:19:20.466Z,40.60
2018-07-28T17:21:56.889Z,40.10
2018-07-28T17:35:40.763Z,39.70
2018-07-28T17:38:14.852Z,39.50
2018-07-28T17:41:04.392Z,40.20
2018-07-28T17:43:46.012Z,40.10
2018-07-28T17:46:18.557Z,40.10
2018-07-28T17:48:52.470Z,40.10
2018-07-28T17:51:21.814Z,40.10
2018-07-28T17:53:53.500Z,40.30
2018-07-28T17:56:24.961Z,40.20
2018-07-28T17:58:55.961Z,40.00
2018-07-28T18:01:31.479Z,40.00
2018-07-28T18:04:05.207Z,40.10
2018-07-28T18:06:52.013Z,40.10
2018-07-28T18:09:40.938Z,40.00
2018-07-28T18:15:14.573Z,40.00
2018-07-28T18:17:51.796Z,40.10
2018-07-28T18:20:24.760Z,40.00
2018-07-28T18:23:05.073Z,40.00
2018-07-28T18:25:39.908Z,40.10
2018-07-28T18:28:20.226Z,40.00
2018-07-28T18:34:09.358Z,40.30
2018-07-28T18:36:48.654Z,40.40
2018-07-28T18:39:23.939Z,40.60
2018-07-28T18:42:01.742Z,40.70
2018-07-28T18:45:10.884Z,40.60
2018-07-28T18:50:34.184Z,41.10
2018-07-28T18:53:22.997Z,40.90
2018-07-28T18:56:06.728Z,41.10
2018-07-28T18:58:50.999Z,41.00
2018-07-28T19:01:36.380Z,40.90
2018-07-28T19:04:14.428Z,41.00
2018-07-28T19:06:57.474Z,41.00
2018-07-28T19:12:53.375Z,41.20
2018-07-28T19:17:06.062Z,41.20
2018-07-28T19:19:41.886Z,41.30
2018-07-28T19:28:00.828Z,41.20
2018-07-28T19:44:43.050Z,41.30
2018-07-28T19:50:34.103Z,41.60
2018-07-28T19:53:11.980Z,41.60
2018-07-28T19:55:46.055Z,41.60
2018-07-28T19:58:20.970Z,41.60
2018-07-28T20:03:38.545Z,41.90
2018-07-28T20:06:27.506Z,41.80
2018-07-28T20:08:57.329Z,41.70
2018-07-28T20:11:27.789Z,42.20
2018-07-28T20:13:57.475Z,42.20
2018-07-28T20:16:31.920Z,42.00
2018-07-28T20:19:03.274Z,42.00
2018-07-28T20:21:33.633Z,41.90
2018-07-28T20:24:04.167Z,42.00
2018-07-28T20:26:33.966Z,41.80
2018-07-28T20:29:05.243Z,41.80
2018-07-28T20:31:38.302Z,41.70
2018-07-28T20:34:09.234Z,41.80
2018-07-28T20:36:39.307Z,41.70
2018-07-28T20:39:12.947Z,41.80
2018-07-28T20:41:42.564Z,41.70
2018-07-28T20:44:13.527Z,41.70
2018-07-28T20:46:43.980Z,41.90
2018-07-28T20:49:13.929Z,41.90
2018-07-28T20:51:51.963Z,41.70
2018-07-28T20:54:25.109Z,41.70
2018-07-28T20:56:58.775Z,41.70
2018-07-28T20:59:28.741Z,41.70
2018-07-28T21:01:58.243Z,41.80
2018-07-28T21:04:27.922Z,41.90
2018-07-28T21:06:57.758Z,41.70
2018-07-28T21:09:27.110Z,41.80
2018-07-28T21:11:57.359Z,41.80
2018-07-28T21:14:26.835Z,41.80
2018-07-28T21:16:56.172Z,41.80
2018-07-28T21:19:25.548Z,41.90
2018-07-28T21:21:56.444Z,42.10
2018-07-28T21:24:25.577Z,42.00
2018-07-28T21:26:54.732Z,42.10
2018-07-28T21:29:33.404Z,42.00
2018-07-28T21:32:02.783Z,42.20
2018-07-28T21:34:32.340Z,42.00
2018-07-28T21:37:01.595Z,42.10
2018-07-28T21:39:31.049Z,42.10
2018-07-28T21:42:01.605Z,41.90
2018-07-28T21:44:32.839Z,41.90
2018-07-28T21:47:02.126Z,41.80
2018-07-28T21:49:33.513Z,41.80
2018-07-28T21:52:02.848Z,42.50
2018-07-28T21:54:32.348Z,41.80
2018-07-28T21:57:02.238Z,41.90
2018-07-28T21:59:32.649Z,41.90
2018-07-28T22:02:02.341Z,41.80
2018-07-28T22:04:38.613Z,42.00
2018-07-28T22:07:08.320Z,42.30
2018-07-28T22:09:37.546Z,42.20
2018-07-28T22:12:06.749Z,42.30
2018-07-28T22:14:36.679Z,42.60
2018-07-28T22:17:06.057Z,42.50
2018-07-28T22:19:35.269Z,43.00
2018-07-28T22:22:04.471Z,43.30
2018-07-28T22:24:34.371Z,43.00
2018-07-28T22:27:03.634Z,43.00
2018-07-28T22:29:32.793Z,43.30
2018-07-28T22:32:02.017Z,43.70
2018-07-28T22:34:31.439Z,43.70
2018-07-28T22:37:00.866Z,43.90
2018-07-28T22:39:30.124Z,44.40
2018-07-28T22:41:59.385Z,44.10
2018-07-28T22:44:28.547Z,44.10
2018-07-28T22:46:57.851Z,44.20
2018-07-28T22:49:27.405Z,44.80
2018-07-28T22:51:57.351Z,45.10
2018-07-28T22:54:26.534Z,45.60
2018-07-28T22:56:55.724Z,45.70
2018-07-28T22:59:25.037Z,45.90
2018-07-28T23:01:54.220Z,45.70
2018-07-28T23:04:23.419Z,45.70
2018-07-28T23:06:52.764Z,46.10
2018-07-28T23:09:22.792Z,45.90
2018-07-28T23:11:52.112Z,45.60
2018-07-28T23:14:21.920Z,45.40
2018-07-28T23:16:51.503Z,46.00
2018-07-28T23:19:20.822Z,46.00
2018-07-28T23:21:50.074Z,45.60
2018-07-28T23:24:19.469Z,45.70
2018-07-28T23:26:48.722Z,45.70
2018-07-28T23:29:18.034Z,45.30
2018-07-28T23:31:47.150Z,45.50
2018-07-28T23:34:16.603Z,45.50
2018-07-28T23:36:45.824Z,45.50
2018-07-28T23:41:44.937Z,45.10
2018-07-28T23:44:14.589Z,45.10
2018-07-28T23:46:43.848Z,44.80
2018-07-28T23:49:13.088Z,44.80
2018-07-28T23:51:42.457Z,44.70
2018-07-28T23:54:11.797Z,45.10
2018-07-28T23:56:41.112Z,44.90
2018-07-28T23:59:10.338Z,44.70
